TimePDT,TemperatureF,Dew PointF,Humidity,Sea Level PressureIn,VisibilityMPH,Wind Direction,Wind SpeedMPH,Gust SpeedMPH,PrecipitationIn,Events,Conditions,WindDirDegrees,DateUTC
12:58 AM,35.4,24.6,65,30.01,10.0,NNE,6.9,-,N/A,,Clear,30,2013-03-26 07:58:00
1:58 AM,33.1,24.6,71,30.01,10.0,North,6.9,-,N/A,,Clear,360,2013-03-26 08:58:00
2:58 AM,33.1,24.3,70,30.01,10.0,NNE,3.5,-,N/A,,Clear,30,2013-03-26 09:58:00
3:58 AM,31.3,23.9,74,30.01,10.0,NNE,4.6,-,N/A,,Clear,30,2013-03-26 10:58:00
4:58 AM,30.0,23.5,77,30.01,10.0,NNE,5.8,-,N/A,,Clear,30,2013-03-26 11:58:00
5:58 AM,30.2,22.3,72,30.01,10.0,NNE,5.8,-,N/A,,Clear,20,2013-03-26 12:58:00
6:58 AM,29.8,21.4,71,30.03,10.0,North,5.8,-,N/A,,Clear,10,2013-03-26 13:58:00
7:58 AM,33.1,23.7,68,30.03,10.0,North,6.9,-,N/A,,Clear,10,2013-03-26 14:58:00
8:53 AM,35.6,24.8,65,29.98,10.0,NNE,6.9,-,N/A,,Clear,30,2013-03-26 15:53:00
8:58 AM,36.1,24.4,63,30.03,10.0,NNE,5.8,-,0.00,,Clear,30,2013-03-26 15:58:00
9:01 AM,35.6,24.8,65,29.98,10.0,NNE,5.8,-,N/A,,Clear,30,2013-03-26 16:01:00
9:58 AM,39.9,26.1,58,30.04,10.0,Variable,5.8,-,0.00,,Clear,0,2013-03-26 16:58:00
10:58 AM,43.2,26.2,51,30.03,10.0,NE,8.1,-,N/A,,Clear,40,2013-03-26 17:58:00
11:58 AM,46.9,27.7,47,30.02,10.0,North,3.5,-,N/A,,Clear,10,2013-03-26 18:58:00
12:58 PM,49.8,29.7,46,30.01,10.0,Variable,2.3,-,N/A,,Clear,0,2013-03-26 19:58:00
1:58 PM,52.3,28.8,40,30.00,10.0,Variable,3.5,-,N/A,,Clear,0,2013-03-26 20:58:00
2:58 PM,53.1,30.6,42,29.99,10.0,Variable,3.5,-,N/A,,Clear,0,2013-03-26 21:58:00
3:58 PM,54.9,30.6,40,29.98,10.0,WSW,4.6,-,N/A,,Mostly Cloudy,250,2013-03-26 22:58:00
4:58 PM,54.5,31.1,41,29.97,10.0,NW,2.3,-,N/A,,Partly Cloudy,310,2013-03-26 23:58:00
5:58 PM,54.3,30.2,40,29.97,10.0,WSW,6.9,-,N/A,,Scattered Clouds,250,2013-03-27 00:58:00
6:58 PM,52.0,30.4,44,29.98,10.0,West,4.6,-,N/A,,Partly Cloudy,260,2013-03-27 01:58:00
7:58 PM,47.3,28.9,49,29.98,10.0,NNW,4.6,-,N/A,,Clear,340,2013-03-27 02:58:00
8:58 PM,42.6,30.7,63,29.99,10.0,South,4.6,-,N/A,,Clear,190,2013-03-27 03:58:00
9:58 PM,42.8,29.5,59,29.98,10.0,West,2.3,-,N/A,,Clear,260,2013-03-27 04:58:00
10:58 PM,41.4,30.4,65,29.97,10.0,Calm,Calm,-,N/A,,Overcast,0,2013-03-27 05:58:00
11:58 PM,39.4,30.0,69,29.97,10.0,Calm,Calm,-,N/A,,Overcast,0,2013-03-27 06:58:00